Terminal Aerodrome Forecast
Issued by NWS

Home | Current Version | Previous Version | Text Only | Print | Product List | Glossary On
Versions: 1 2 3 4 5 6 7 8 9 10 11
394
FTUS42 TJSJ 061739
TAFISX
TAF
TISX 061739Z 0618/0718 14012G20KT P6SM VCSH FEW022 BKN040
     FM062330 12010KT P6SM SCT035
     FM070800 10008KT P6SM VCSH SCT022 SCT040
     FM071400 13015KT P6SM SCT030=

USA.gov is the U.S. government's official web portal to all federal, state and local government web resources and services.